Time;durP1;ratioP1;P1;durP2;ratioP2;P2;SDS_P1;SDS_P2;PMS_P1;PMS_P2;Temp;Humidity;BMP_temperature;BMP_pressure;BME280_temperature;BME280_humidity;BME280_pressure;Samples;Min_cycle;Max_cycle;Signal;HPM_P1;HPM_P2
2024/01/18 00:00:27;;;;;;;;;;;;;;;16.24;39.98;97249.34;10325515;28;983;-70
2024/01/18 00:05:23;;;;;;;;;;;;;;;16.24;40.04;97249.34;10325960;28;845;-70
2024/01/18 00:10:26;;;;;;;;;;;;;;;16.24;39.94;97254.59;10325120;28;1882;-70
2024/01/18 00:15:22;;;;;;;;;;;;;;;16.23;40.07;97253.75;10325211;28;874;-70
2024/01/18 00:20:18;;;;;;;;;;;;;;;16.22;39.92;97275.75;10325104;28;863;-70
2024/01/18 00:25:13;;;;;;;;;;;;;;;16.25;39.93;97293.09;10324746;28;1247;-70
2024/01/18 00:30:09;;;;;;;;;;;;;;;16.20;40.22;97275.88;10325614;28;1914;-70
2024/01/18 00:35:05;;;;;;;;;;;;;;;16.20;40.14;97285.53;10324212;28;815;-70
2024/01/18 00:40:01;;;;;;;;;;;;;;;16.19;40.20;97289.97;10324148;28;819;-70
2024/01/18 00:44:57;;;;;;;;;;;;;;;16.19;40.12;97295.22;10324614;28;868;-70
2024/01/18 00:49:53;;;;;;;;;;;;;;;16.19;40.07;97308.38;10325320;28;1898;-70
2024/01/18 00:54:49;;;;;;;;;;;;;;;16.19;40.09;97297.84;10332304;28;947;-70
2024/01/18 00:59:44;;;;;;;;;;;;;;;16.17;40.16;97297.13;10332178;28;921;-70
2024/01/18 01:04:40;;;;;;;;;;;;;;;16.17;40.02;97312.88;10331185;28;1114;-70
2024/01/18 01:09:36;;;;;;;;;;;;;;;16.17;40.21;97325.19;10331600;28;1898;-70
2024/01/18 01:14:32;;;;;;;;;;;;;;;16.16;39.95;97341.91;10332053;28;880;-70
2024/01/18 01:19:28;;;;;;;;;;;;;;;16.16;40.03;97347.16;10330652;28;776;-70
2024/01/18 01:24:24;;;;;;;;;;;;;;;16.15;39.96;97362.09;10331720;28;854;-70
2024/01/18 01:29:20;;;;;;;;;;;;;;;16.15;40.19;97354.22;10331875;28;1906;-70
2024/01/18 01:34:15;;;;;;;;;;;;;;;16.16;40.00;97362.94;10330807;28;927;-70
2024/01/18 01:39:11;;;;;;;;;;;;;;;16.15;39.95;97388.38;10330001;28;807;-70
2024/01/18 01:44:07;;;;;;;;;;;;;;;16.14;39.97;97396.41;10331013;28;819;-70
2024/01/18 01:49:03;;;;;;;;;;;;;;;16.14;39.92;97355.19;10330713;28;1898;-70
2024/01/18 01:53:59;;;;;;;;;;;;;;;16.14;39.88;97362.22;10329448;28;909;-70
2024/01/18 01:58:55;;;;;;;;;;;;;;;16.12;40.04;97375.47;10329788;28;793;-70
2024/01/18 02:03:51;;;;;;;;;;;;;;;16.14;40.09;97381.47;10329056;28;862;-70
2024/01/18 02:08:47;;;;;;;;;;;;;;;16.13;39.97;97405.22;10329402;28;1964;-70
2024/01/18 02:13:43;;;;;;;;;;;;;;;16.13;40.14;97399.97;10330659;28;861;-70
2024/01/18 02:18:39;;;;;;;;;;;;;;;16.13;39.86;97385.03;10329846;28;838;-70
2024/01/18 02:23:35;;;;;;;;;;;;;;;16.12;40.11;97395.66;10328808;28;798;-70
2024/01/18 02:28:30;;;;;;;;;;;;;;;16.11;40.07;97409.72;10329067;28;1152;-70
2024/01/18 02:33:26;;;;;;;;;;;;;;;16.11;40.05;97407.97;10328556;28;1897;-70
2024/01/18 02:38:22;;;;;;;;;;;;;;;16.10;39.99;97415.94;10327774;28;920;-70
2024/01/18 02:43:18;;;;;;;;;;;;;;;16.10;40.20;97423.84;10328631;28;856;-70
2024/01/18 02:48:14;;;;;;;;;;;;;;;16.10;39.89;97423.84;10328304;28;877;-70
2024/01/18 02:53:10;;;;;;;;;;;;;;;16.10;39.89;97415.94;10328165;28;1957;-70
2024/01/18 02:58:06;;;;;;;;;;;;;;;16.10;39.98;97415.94;10328050;28;865;-70
2024/01/18 03:03:01;;;;;;;;;;;;;;;16.10;40.11;97413.31;10327194;28;929;-70
2024/01/18 03:07:57;;;;;;;;;;;;;;;16.09;40.15;97411.66;10327326;28;778;-70
2024/01/18 03:12:53;;;;;;;;;;;;;;;16.09;39.93;97406.41;10327069;28;1958;-70
2024/01/18 03:17:49;;;;;;;;;;;;;;;16.10;39.93;97405.44;10325974;28;904;-70
2024/01/18 03:22:45;;;;;;;;;;;;;;;16.08;39.85;97404.72;10327338;28;847;-70
2024/01/18 03:27:41;;;;;;;;;;;;;;;16.07;39.99;97405.66;10326090;28;1221;-70
2024/01/18 03:32:37;;;;;;;;;;;;;;;16.08;39.84;97407.34;10326146;28;1923;-70
2024/01/18 03:37:32;;;;;;;;;;;;;;;16.07;39.88;97411.75;10326107;28;838;-70
2024/01/18 03:42:28;;;;;;;;;;;;;;;16.06;39.94;97410.09;10326518;28;877;-70
2024/01/18 03:47:24;;;;;;;;;;;;;;;16.07;40.14;97410.94;10325752;28;751;-70
2024/01/18 03:52:20;;;;;;;;;;;;;;;16.06;40.07;97415.34;10325606;28;1948;-70
2024/01/18 03:57:16;;;;;;;;;;;;;;;16.07;39.93;97416.19;10324908;28;910;-70
2024/01/18 04:02:13;;;;;;;;;;;;;;;16.07;40.03;97413.56;10325495;28;779;-69
2024/01/18 04:07:09;;;;;;;;;;;;;;;16.06;39.92;97409.22;10325530;28;843;-70
2024/01/18 04:12:05;;;;;;;;;;;;;;;16.04;40.09;97408.53;10325389;28;1965;-70
2024/01/18 04:17:01;;;;;;;;;;;;;;;16.05;39.90;97412.81;10325912;28;780;-70
2024/01/18 04:21:57;;;;;;;;;;;;;;;16.06;40.03;97406.59;10325106;28;921;-70
2024/01/18 04:26:52;;;;;;;;;;;;;;;16.07;39.89;97418.81;10329327;28;1148;-70
2024/01/18 04:31:49;;;;;;;;;;;;;;;16.09;39.93;97430.06;10333099;28;2026;-70
2024/01/18 04:36:45;;;;;;;;;;;;;;;16.08;39.87;97442.34;10333033;28;767;-70
2024/01/18 04:41:40;;;;;;;;;;;;;;;16.11;39.90;97444.75;10333402;28;875;-70
2024/01/18 04:46:36;;;;;;;;;;;;;;;16.11;39.88;97450.00;10332645;28;1059;-70
2024/01/18 04:51:32;;;;;;;;;;;;;;;16.12;39.74;97456.09;10332844;28;1934;-70
2024/01/18 04:56:28;;;;;;;;;;;;;;;16.15;39.73;97461.13;10332171;28;803;-70
2024/01/18 05:01:24;;;;;;;;;;;;;;;16.13;39.97;97471.75;10332663;28;790;-70
2024/01/18 05:06:20;;;;;;;;;;;;;;;16.16;39.89;97486.44;10333077;28;912;-70
2024/01/18 05:11:16;;;;;;;;;;;;;;;16.16;39.96;97484.66;10332213;28;1894;-71
2024/01/18 05:16:12;;;;;;;;;;;;;;;16.17;39.89;97501.28;10332092;28;878;-71
2024/01/18 05:21:09;;;;;;;;;;;;;;;16.19;39.91;97508.13;10331246;28;779;-70
2024/01/18 05:26:05;;;;;;;;;;;;;;;16.19;39.91;97502.84;10330879;28;1116;-70
2024/01/18 05:31:01;;;;;;;;;;;;;;;16.21;39.67;97505.34;10330815;28;1931;-73
2024/01/18 05:35:57;;;;;;;;;;;;;;;16.17;39.89;97510.00;10331150;28;767;-70
2024/01/18 05:40:53;;;;;;;;;;;;;;;16.19;39.98;97530.91;10330619;28;806;-70
2024/01/18 05:45:49;;;;;;;;;;;;;;;16.23;39.85;97526.28;10330238;28;901;-70
2024/01/18 05:50:45;;;;;;;;;;;;;;;16.22;39.66;97538.59;10330707;28;1955;-70
2024/01/18 05:55:40;;;;;;;;;;;;;;;16.26;39.70;97542.66;10330302;28;881;-70
2024/01/18 06:00:36;;;;;;;;;;;;;;;16.27;39.89;97533.84;10329854;28;1020;-70
2024/01/18 06:05:32;;;;;;;;;;;;;;;16.24;39.66;97535.84;10329068;28;830;-70
2024/01/18 06:10:28;;;;;;;;;;;;;;;16.27;39.90;97544.34;10328838;28;1948;-71
2024/01/18 06:15:24;;;;;;;;;;;;;;;16.27;39.70;97549.63;10328572;28;883;-70
2024/01/18 06:20:20;;;;;;;;;;;;;;;16.27;39.88;97554.88;10330261;28;838;-71
2024/01/18 06:25:17;;;;;;;;;;;;;;;16.30;39.67;97559.91;10328812;28;1376;-70
2024/01/18 06:30:13;;;;;;;;;;;;;;;16.30;39.58;97586.19;10329253;28;1973;-71
2024/01/18 06:35:09;;;;;;;;;;;;;;;16.33;39.85;97579.88;10329016;28;945;-72
2024/01/18 06:40:07;;;;;;;;;;;;;;;16.34;39.85;97594.69;10328441;28;913;-71
2024/01/18 06:45:03;;;;;;;;;;;;;;;16.34;39.94;97597.31;10327898;28;814;-71
2024/01/18 06:49:59;;;;;;;;;;;;;;;16.34;39.73;97592.91;10327023;28;1890;-70
2024/01/18 06:54:55;;;;;;;;;;;;;;;16.34;39.91;97608.66;10327633;28;841;-70
2024/01/18 06:59:52;;;;;;;;;;;;;;;16.36;39.73;97627.81;10327456;28;902;-70
2024/01/18 07:04:48;;;;;;;;;;;;;;;16.33;39.91;97638.56;10327182;28;932;-71
2024/01/18 07:09:44;;;;;;;;;;;;;;;16.32;39.75;97636.88;10327145;28;1961;-71
2024/01/18 07:14:40;;;;;;;;;;;;;;;16.30;39.95;97645.81;10326886;28;866;-71
2024/01/18 07:19:36;;;;;;;;;;;;;;;16.27;39.97;97649.50;10326608;28;774;-71
2024/01/18 07:24:32;;;;;;;;;;;;;;;16.20;39.60;97648.25;10327136;28;945;-67
2024/01/18 07:29:27;;;;;;;;;;;;;;;16.14;39.54;97664.47;10326007;28;1983;-68
2024/01/18 07:34:23;;;;;;;;;;;;;;;16.11;39.48;97657.63;10326281;28;945;-69
2024/01/18 07:39:19;;;;;;;;;;;;;;;16.10;39.49;97678.75;10326138;28;871;-68
2024/01/18 07:44:15;;;;;;;;;;;;;;;16.08;39.33;97680.63;10325855;28;792;-68
2024/01/18 07:49:11;;;;;;;;;;;;;;;16.07;39.42;97685.06;10325562;28;1894;-71
2024/01/18 07:54:07;;;;;;;;;;;;;;;16.12;39.20;97682.94;10325685;28;822;-70
2024/01/18 07:59:03;;;;;;;;;;;;;;;16.14;39.30;97685.50;10326063;28;822;-70
2024/01/18 08:03:59;;;;;;;;;;;;;;;16.14;39.36;97681.06;10324977;28;852;-70
2024/01/18 08:08:55;;;;;;;;;;;;;;;16.18;39.31;97692.19;10326043;28;1963;-70
2024/01/18 08:13:51;;;;;;;;;;;;;;;16.16;39.37;97704.59;10325229;28;953;-70
2024/01/18 08:18:47;;;;;;;;;;;;;;;16.14;39.14;97706.50;10325835;28;841;-70
2024/01/18 08:23:43;;;;;;;;;;;;;;;16.20;39.40;97706.06;10322823;28;1101;-71
2024/01/18 08:28:39;;;;;;;;;;;;;;;16.18;39.50;97721.94;10324686;28;1366;-71
2024/01/18 08:33:35;;;;;;;;;;;;;;;16.22;39.73;97727.84;10324260;28;1971;-71
2024/01/18 08:38:31;;;;;;;;;;;;;;;16.26;39.74;97752.97;10324605;28;884;-71
2024/01/18 08:43:27;;;;;;;;;;;;;;;16.25;39.56;97771.47;10323991;28;758;-70
2024/01/18 08:48:23;;;;;;;;;;;;;;;16.28;39.52;97782.63;10324370;28;850;-71
2024/01/18 08:53:19;;;;;;;;;;;;;;;16.28;39.49;97774.72;10323720;28;1894;-71
2024/01/18 08:58:16;;;;;;;;;;;;;;;16.28;39.62;97779.16;10324370;28;962;-70
2024/01/18 09:03:12;;;;;;;;;;;;;;;16.32;39.46;97783.25;10323775;28;822;-71
2024/01/18 09:08:07;;;;;;;;;;;;;;;16.31;39.51;97792.09;10324824;28;880;-71
2024/01/18 09:13:03;;;;;;;;;;;;;;;16.28;39.46;97797.56;10326419;28;1961;-72
2024/01/18 09:17:59;;;;;;;;;;;;;;;16.27;39.57;97799.34;10331948;28;896;-71
2024/01/18 09:22:56;;;;;;;;;;;;;;;16.26;39.70;97807.31;10331134;28;759;-71
2024/01/18 09:27:52;;;;;;;;;;;;;;;16.26;39.49;97821.31;10330883;28;1324;-70
2024/01/18 09:32:47;;;;;;;;;;;;;;;16.26;39.72;97828.34;10330351;28;1909;-72
2024/01/18 09:37:43;;;;;;;;;;;;;;;16.26;39.51;97847.59;10330806;28;847;-72
2024/01/18 09:42:39;;;;;;;;;;;;;;;16.30;39.52;97845.63;10330792;28;823;-70
2024/01/18 09:47:36;;;;;;;;;;;;;;;16.28;39.47;97858.03;10330449;28;818;-70
2024/01/18 09:52:33;;;;;;;;;;;;;;;16.29;39.58;97862.31;10329777;28;1953;-70
2024/01/18 09:57:32;;;;;;;;;;;;;;;16.32;39.57;97877.88;10329614;28;1637;-71
2024/01/18 10:02:28;;;;;;;;;;;;;;;16.32;39.56;97872.63;10329332;28;918;-71
2024/01/18 10:07:23;;;;;;;;;;;;;;;16.32;39.49;97886.63;10329786;28;970;-69
2024/01/18 10:12:19;;;;;;;;;;;;;;;16.33;39.50;97901.47;10328329;28;1890;-71
2024/01/18 10:17:15;;;;;;;;;;;;;;;16.35;39.43;97904.00;10328722;28;1042;-70
2024/01/18 10:22:11;;;;;;;;;;;;;;;16.40;39.26;97907.13;10327997;28;1042;-71
2024/01/18 10:27:07;;;;;;;;;;;;;;;16.39;39.42;97926.50;10327241;28;1421;-71
2024/01/18 10:32:03;;;;;;;;;;;;;;;16.40;39.42;97928.16;10328180;28;1898;-72
2024/01/18 10:36:59;;;;;;;;;;;;;;;16.47;39.51;97933.88;10328372;28;772;-72
2024/01/18 10:41:55;;;;;;;;;;;;;;;16.49;39.75;97942.50;10328422;28;845;-72
2024/01/18 10:46:51;;;;;;;;;;;;;;;16.53;39.97;97959.75;10328270;28;906;-72
2024/01/18 10:51:47;;;;;;;;;;;;;;;16.52;40.32;97950.19;10327322;28;1885;-73
2024/01/18 10:56:43;;;;;;;;;;;;;;;16.48;39.92;97962.72;10327337;28;961;-72
2024/01/18 11:01:38;;;;;;;;;;;;;;;16.41;40.24;97967.53;10326361;28;921;-73
2024/01/18 11:06:34;;;;;;;;;;;;;;;16.39;39.84;97968.56;10326266;28;901;-72
2024/01/18 11:11:31;;;;;;;;;;;;;;;16.34;39.37;97983.81;10327228;28;1890;-73
2024/01/18 11:16:27;;;;;;;;;;;;;;;16.38;39.23;97983.50;10326358;28;790;-73
2024/01/18 11:21:27;;;;;;;;;;;;;;;16.39;38.77;97990.44;10325806;28;1175;-73
2024/01/18 11:26:23;;;;;;;;;;;;;;;16.39;38.91;97989.59;10326104;28;1371;-72
2024/01/18 11:31:19;;;;;;;;;;;;;;;16.40;39.12;97997.41;10325953;28;1902;-71
2024/01/18 11:36:15;;;;;;;;;;;;;;;16.44;38.78;97996.25;10326502;28;964;-71
2024/01/18 11:41:11;;;;;;;;;;;;;;;16.48;38.59;98010.06;10325803;28;864;-71
2024/01/18 11:46:07;;;;;;;;;;;;;;;16.52;38.57;98010.69;10325954;28;854;-71
2024/01/18 11:51:03;;;;;;;;;;;;;;;16.54;38.55;98019.31;10325683;28;1898;-70
2024/01/18 11:55:59;;;;;;;;;;;;;;;16.57;38.61;98022.59;10325693;28;747;-71
2024/01/18 12:00:56;;;;;;;;;;;;;;;16.62;38.81;98030.19;10325294;28;886;-71
2024/01/18 12:05:51;;;;;;;;;;;;;;;16.64;38.74;98030.94;10324703;28;934;-71
2024/01/18 12:10:47;;;;;;;;;;;;;;;16.69;38.79;98033.22;10325353;28;1970;-71
2024/01/18 12:15:44;;;;;;;;;;;;;;;16.72;38.85;98043.59;10324617;28;891;-71
2024/01/18 12:20:40;;;;;;;;;;;;;;;16.75;38.82;98048.63;10325006;28;854;-72
2024/01/18 12:25:36;;;;;;;;;;;;;;;16.78;38.89;98059.81;10324033;28;1681;-71
2024/01/18 12:30:32;;;;;;;;;;;;;;;16.80;38.93;98063.19;10325687;28;1965;-71
2024/01/18 12:35:28;;;;;;;;;;;;;;;16.83;39.04;98065.63;10324393;28;783;-78
2024/01/18 12:40:24;;;;;;;;;;;;;;;16.92;39.13;98069.44;10324499;28;975;-71
2024/01/18 12:45:21;;;;;;;;;;;;;;;16.93;39.19;98080.81;10324324;28;898;-71
2024/01/18 12:50:17;;;;;;;;;;;;;;;16.91;39.39;98085.34;10331981;28;1968;-71
2024/01/18 12:55:12;;;;;;;;;;;;;;;17.01;39.13;98092.50;10331978;28;802;-76
2024/01/18 13:00:09;;;;;;;;;;;;;;;16.95;39.27;98106.09;10332327;28;845;-75
2024/01/18 13:05:05;;;;;;;;;;;;;;;17.06;39.47;98105.38;10331508;28;874;-71
2024/01/18 13:10:01;;;;;;;;;;;;;;;17.05;39.21;98107.16;10331375;28;1941;-68
2024/01/18 13:14:57;;;;;;;;;;;;;;;17.06;39.29;98119.38;10330888;28;933;-67
2024/01/18 13:19:53;;;;;;;;;;;;;;;17.06;39.15;98122.00;10330963;28;773;-67
2024/01/18 13:24:51;;;;;;;;;;;;;;;17.10;38.99;98143.69;10330784;28;1015;-71
2024/01/18 13:29:47;;;;;;;;;;;;;;;17.17;39.05;98144.16;10331062;28;2084;-68
2024/01/18 13:34:43;;;;;;;;;;;;;;;17.06;39.05;98158.03;10330542;28;767;-68
2024/01/18 13:39:39;;;;;;;;;;;;;;;17.02;38.72;98161.78;10330241;28;906;-68
2024/01/18 13:44:34;;;;;;;;;;;;;;;17.00;38.52;98171.56;10330162;28;834;-71
2024/01/18 13:49:30;;;;;;;;;;;;;;;16.96;38.07;98191.16;10330195;28;1889;-71
2024/01/18 13:54:26;;;;;;;;;;;;;;;16.95;37.83;98202.59;10330437;28;843;-71
2024/01/18 13:59:22;;;;;;;;;;;;;;;17.06;37.77;98213.31;10330158;28;881;-74
2024/01/18 14:04:18;;;;;;;;;;;;;;;17.00;37.68;98226.84;10330045;28;889;-71
2024/01/18 14:09:14;;;;;;;;;;;;;;;16.94;38.10;98232.50;10329049;28;1898;-71
2024/01/18 14:14:10;;;;;;;;;;;;;;;16.89;38.38;98240.69;10328835;28;929;-71
2024/01/18 14:19:07;;;;;;;;;;;;;;;16.84;38.43;98248.88;10328513;28;865;-71
2024/01/18 14:24:03;;;;;;;;;;;;;;;16.83;38.35;98265.63;10328205;28;1097;-70
2024/01/18 14:28:59;;;;;;;;;;;;;;;16.80;38.44;98273.69;10327485;28;1411;-71
2024/01/18 14:33:54;;;;;;;;;;;;;;;16.78;38.22;98286.09;10328500;28;916;-71
2024/01/18 14:38:50;;;;;;;;;;;;;;;16.82;38.21;98303.41;10327218;28;1008;-72
2024/01/18 14:43:46;;;;;;;;;;;;;;;16.79;38.05;98319.38;10328152;28;976;-70
2024/01/18 14:48:42;;;;;;;;;;;;;;;16.76;38.10;98329.22;10327799;28;900;-70
2024/01/18 14:53:38;;;;;;;;;;;;;;;16.75;38.18;98338.88;10327095;28;1886;-70
2024/01/18 14:58:34;;;;;;;;;;;;;;;16.74;37.98;98341.59;10327590;28;874;-70
2024/01/18 15:03:30;;;;;;;;;;;;;;;16.76;38.10;98351.09;10326654;28;849;-71
2024/01/18 15:08:26;;;;;;;;;;;;;;;16.73;37.90;98353.09;10326199;28;876;-70
2024/01/18 15:13:23;;;;;;;;;;;;;;;16.76;37.81;98361.63;10325947;28;1956;-70
2024/01/18 15:18:19;;;;;;;;;;;;;;;16.78;37.76;98382.63;10326677;28;780;-71
2024/01/18 15:23:14;;;;;;;;;;;;;;;16.71;38.04;98384.72;10326983;28;870;-71
2024/01/18 15:28:11;;;;;;;;;;;;;;;16.69;37.99;98401.56;10326337;28;1169;-70
2024/01/18 15:33:09;;;;;;;;;;;;;;;16.73;37.88;98411.81;10326722;28;1972;-75
2024/01/18 15:38:05;;;;;;;;;;;;;;;16.75;37.90;98423.09;10326635;28;849;-71
2024/01/18 15:43:01;;;;;;;;;;;;;;;16.73;38.02;98439.91;10325752;28;807;-70
2024/01/18 15:47:56;;;;;;;;;;;;;;;16.75;37.99;98454.66;10325607;28;826;-70
2024/01/18 15:52:52;;;;;;;;;;;;;;;16.72;38.19;98470.63;10326064;28;1897;-70
2024/01/18 15:57:48;;;;;;;;;;;;;;;16.76;38.24;98481.81;10325944;28;846;-70
2024/01/18 16:02:44;;;;;;;;;;;;;;;16.72;38.27;98485.59;10325982;28;818;-71
2024/01/18 16:07:40;;;;;;;;;;;;;;;16.74;38.37;98499.47;10326028;28;870;-72
2024/01/18 16:12:36;;;;;;;;;;;;;;;16.75;38.33;98506.44;10325692;28;1979;-70
2024/01/18 16:17:32;;;;;;;;;;;;;;;16.75;38.37;98524.88;10324360;28;866;-70
2024/01/18 16:22:27;;;;;;;;;;;;;;;16.76;38.55;98530.03;10328738;28;964;-70
2024/01/18 16:27:23;;;;;;;;;;;;;;;16.77;38.43;98537.03;10333465;28;1156;-70
2024/01/18 16:32:19;;;;;;;;;;;;;;;16.78;38.67;98548.41;10333306;28;1981;-70
2024/01/18 16:37:15;;;;;;;;;;;;;;;16.81;38.51;98558.75;10332902;28;778;-70
2024/01/18 16:42:11;;;;;;;;;;;;;;;16.79;38.69;98568.50;10332763;28;1067;-70
2024/01/18 16:47:07;;;;;;;;;;;;;;;16.80;38.57;98583.38;10332555;28;811;-71
2024/01/18 16:52:03;;;;;;;;;;;;;;;16.81;38.65;98606.13;10332523;28;1902;-70
2024/01/18 16:56:58;;;;;;;;;;;;;;;16.82;38.81;98616.56;10333034;28;815;-71
2024/01/18 17:01:56;;;;;;;;;;;;;;;16.83;38.96;98620.88;10332235;28;877;-71
2024/01/18 17:06:51;;;;;;;;;;;;;;;16.79;39.11;98640.44;10332033;28;776;-72
2024/01/18 17:11:47;;;;;;;;;;;;;;;16.78;38.91;98654.50;10331688;28;1901;-71
2024/01/18 17:16:43;;;;;;;;;;;;;;;16.76;38.95;98661.59;10331557;28;938;-71
2024/01/18 17:21:39;;;;;;;;;;;;;;;16.75;39.27;98675.69;10331966;28;818;-71
2024/01/18 17:26:35;;;;;;;;;;;;;;;16.74;39.06;98695.06;10330819;28;1203;-70
2024/01/18 17:31:31;;;;;;;;;;;;;;;16.74;39.01;98688.94;10331533;28;1914;-71
2024/01/18 17:36:27;;;;;;;;;;;;;;;16.70;39.04;98704.06;10330739;28;852;-71
2024/01/18 17:41:23;;;;;;;;;;;;;;;16.69;39.20;98715.53;10330741;28;859;-71
2024/01/18 17:46:19;;;;;;;;;;;;;;;16.73;39.01;98724.09;10329903;28;961;-71
2024/01/18 17:51:14;;;;;;;;;;;;;;;16.71;39.15;98732.06;10330298;28;1890;-71
2024/01/18 17:56:10;;;;;;;;;;;;;;;16.71;39.13;98739.09;10330854;28;881;-71
2024/01/18 18:01:07;;;;;;;;;;;;;;;16.71;39.25;98750.47;10330000;28;918;-71
2024/01/18 18:06:03;;;;;;;;;;;;;;;16.75;39.38;98764.31;10329747;28;816;-71
2024/01/18 18:10:59;;;;;;;;;;;;;;;16.74;39.20;98771.38;10329574;28;1897;-71
2024/01/18 18:15:57;;;;;;;;;;;;;;;16.75;39.00;98786.22;10330083;28;856;-71
2024/01/18 18:20:53;;;;;;;;;;;;;;;16.78;39.07;98793.97;10329852;28;810;-71
2024/01/18 18:25:49;;;;;;;;;;;;;;;16.81;39.00;98799.06;10328490;28;1158;-70
2024/01/18 18:30:46;;;;;;;;;;;;;;;16.78;39.00;98809.75;10328828;28;1914;-71
2024/01/18 18:35:42;;;;;;;;;;;;;;;16.82;39.03;98815.69;10328701;28;849;-71
2024/01/18 18:40:38;;;;;;;;;;;;;;;16.81;38.91;98822.75;10328439;28;949;-75
2024/01/18 18:45:33;;;;;;;;;;;;;;;16.79;39.12;98822.00;10328034;28;900;-71
2024/01/18 18:50:29;;;;;;;;;;;;;;;16.80;39.07;98826.34;10328110;28;1894;-70
2024/01/18 18:55:25;;;;;;;;;;;;;;;16.84;38.79;98837.53;10327865;28;882;-71
2024/01/18 19:00:21;;;;;;;;;;;;;;;16.86;38.86;98852.31;10327639;28;772;-71
2024/01/18 19:05:17;;;;;;;;;;;;;;;16.84;38.98;98869.97;10327470;28;873;-71
2024/01/18 19:10:13;;;;;;;;;;;;;;;16.85;39.02;98881.38;10327113;28;1902;-71
2024/01/18 19:15:09;;;;;;;;;;;;;;;16.86;38.94;98888.31;10327008;28;930;-70
2024/01/18 19:20:04;;;;;;;;;;;;;;;16.85;38.84;98900.63;10326269;28;1052;-71
2024/01/18 19:25:00;;;;;;;;;;;;;;;16.88;38.97;98918.03;10327545;28;1111;-70
2024/01/18 19:29:56;;;;;;;;;;;;;;;16.86;39.05;98931.28;10326523;28;1918;-70
2024/01/18 19:34:53;;;;;;;;;;;;;;;16.88;38.73;98939.09;10326352;28;1043;-71
2024/01/18 19:39:49;;;;;;;;;;;;;;;16.92;38.91;98955.56;10326199;28;877;-71
2024/01/18 19:44:45;;;;;;;;;;;;;;;16.93;38.77;98973.09;10326089;28;948;-71
2024/01/18 19:49:41;;;;;;;;;;;;;;;16.92;38.94;98981.91;10325888;28;1977;-70
2024/01/18 19:54:37;;;;;;;;;;;;;;;16.93;38.96;98979.19;10326286;28;854;-71
2024/01/18 19:59:34;;;;;;;;;;;;;;;16.95;38.90;98984.38;10326200;28;826;-71
2024/01/18 20:04:29;;;;;;;;;;;;;;;16.93;38.86;98999.41;10324959;28;975;-70
2024/01/18 20:09:25;;;;;;;;;;;;;;;16.97;38.72;99000.94;10326048;28;1959;-71
2024/01/18 20:14:21;;;;;;;;;;;;;;;16.95;38.93;99008.06;10324824;28;940;-71
2024/01/18 20:19:18;;;;;;;;;;;;;;;16.95;39.03;99024.72;10325224;28;941;-70
2024/01/18 20:24:14;;;;;;;;;;;;;;;16.97;38.86;99029.91;10325148;28;902;-70
2024/01/18 20:29:10;;;;;;;;;;;;;;;16.98;38.72;99026.34;10326097;28;1125;-70
2024/01/18 20:34:06;;;;;;;;;;;;;;;16.99;38.88;99039.41;10325002;28;1902;-71
2024/01/18 20:39:03;;;;;;;;;;;;;;;16.99;38.64;99039.41;10324911;28;778;-70
2024/01/18 20:43:58;;;;;;;;;;;;;;;16.98;38.76;99058.78;10325683;28;862;-71
2024/01/18 20:48:54;;;;;;;;;;;;;;;16.98;38.70;99065.84;10324661;28;934;-70
2024/01/18 20:53:50;;;;;;;;;;;;;;;16.95;39.00;99080.00;10325165;28;1902;-71
2024/01/18 20:58:46;;;;;;;;;;;;;;;16.96;38.80;99088.75;10325205;28;889;-71
2024/01/18 21:03:42;;;;;;;;;;;;;;;16.96;38.90;99086.97;10325010;28;838;-71
2024/01/18 21:08:38;;;;;;;;;;;;;;;16.93;38.94;99099.44;10328107;28;893;-71
2024/01/18 21:13:34;;;;;;;;;;;;;;;16.95;38.80;99111.59;10331852;28;1965;-71
2024/01/18 21:18:30;;;;;;;;;;;;;;;16.93;38.98;99109.97;10332193;28;796;-71
2024/01/18 21:23:27;;;;;;;;;;;;;;;16.91;38.99;99122.34;10332778;28;881;-71
2024/01/18 21:28:23;;;;;;;;;;;;;;;16.92;38.94;99134.56;10331370;28;1215;-70
2024/01/18 21:33:19;;;;;;;;;;;;;;;16.94;38.87;99148.50;10331187;28;1910;-70
2024/01/18 21:38:16;;;;;;;;;;;;;;;16.90;39.01;99161.00;10331517;28;961;-70
2024/01/18 21:43:11;;;;;;;;;;;;;;;16.89;38.82;99171.59;10330700;28;875;-71
2024/01/18 21:48:07;;;;;;;;;;;;;;;16.88;38.82;99162.84;10329956;28;1000;-70
2024/01/18 21:53:03;;;;;;;;;;;;;;;16.86;38.97;99173.44;10330313;28;1918;-71
2024/01/18 21:57:59;;;;;;;;;;;;;;;16.84;38.74;99185.81;10330425;28;1560;-71
2024/01/18 22:02:55;;;;;;;;;;;;;;;16.83;38.78;99191.16;10329968;28;1183;-71
2024/01/18 22:07:51;;;;;;;;;;;;;;;16.80;38.77;99192.16;10329851;28;766;-70
2024/01/18 22:12:47;;;;;;;;;;;;;;;16.78;38.99;99195.78;10329199;28;1959;-71
2024/01/18 22:17:43;;;;;;;;;;;;;;;16.77;38.85;99207.22;10329418;28;810;-70
2024/01/18 22:22:38;;;;;;;;;;;;;;;16.74;38.90;99205.59;10328150;28;806;-70
2024/01/18 22:27:35;;;;;;;;;;;;;;;16.72;38.90;99207.44;10328922;28;1375;-70
2024/01/18 22:32:30;;;;;;;;;;;;;;;16.71;38.93;99215.38;10328950;28;1910;-70
2024/01/18 22:37:27;;;;;;;;;;;;;;;16.70;38.93;99218.97;10329912;28;802;-70
2024/01/18 22:42:23;;;;;;;;;;;;;;;16.69;38.77;99227.75;10328516;28;798;-70
2024/01/18 22:47:19;;;;;;;;;;;;;;;16.67;38.90;99233.09;10328176;28;851;-70
2024/01/18 22:52:14;;;;;;;;;;;;;;;16.65;38.98;99237.59;10328869;28;1893;-70
2024/01/18 22:57:10;;;;;;;;;;;;;;;16.65;38.83;99234.94;10327843;28;865;-70
2024/01/18 23:02:06;;;;;;;;;;;;;;;16.64;38.98;99242.00;10328049;28;846;-70
2024/01/18 23:07:02;;;;;;;;;;;;;;;16.63;38.93;99242.06;10327374;28;953;-71
2024/01/18 23:11:58;;;;;;;;;;;;;;;16.63;38.76;99252.59;10327488;28;1902;-70
2024/01/18 23:16:54;;;;;;;;;;;;;;;16.61;38.97;99250.03;10327652;28;798;-70
2024/01/18 23:21:50;;;;;;;;;;;;;;;16.60;38.89;99263.25;10326868;28;871;-70
2024/01/18 23:26:46;;;;;;;;;;;;;;;16.61;38.88;99263.19;10326551;28;1227;-70
2024/01/18 23:31:42;;;;;;;;;;;;;;;16.60;38.81;99261.47;10325949;28;1913;-71
2024/01/18 23:36:38;;;;;;;;;;;;;;;16.59;38.82;99266.81;10326376;28;814;-70
2024/01/18 23:41:34;;;;;;;;;;;;;;;16.59;38.69;99269.47;10326747;28;806;-70
2024/01/18 23:46:30;;;;;;;;;;;;;;;16.59;38.95;99279.97;10326937;28;918;-70
2024/01/18 23:51:26;;;;;;;;;;;;;;;16.56;38.89;99272.22;10325889;28;1866;-70
2024/01/18 23:56:22;;;;;;;;;;;;;;;16.56;38.98;99277.50;10326065;28;806;-70
